createdAt,value
2023-04-18T00:01:17.028Z,15.77
2023-04-18T00:03:43.600Z,15.79
2023-04-18T00:06:10.454Z,15.78
2023-04-18T00:08:37.058Z,15.77
2023-04-18T00:11:03.482Z,15.79
2023-04-18T00:13:29.811Z,15.74
2023-04-18T00:15:56.153Z,15.76
2023-04-18T00:18:22.523Z,15.75
2023-04-18T00:20:49.226Z,15.75
2023-04-18T00:23:16.025Z,15.77
2023-04-18T00:25:42.532Z,15.75
2023-04-18T00:28:09.012Z,15.78
2023-04-18T00:30:35.395Z,15.75
2023-04-18T00:33:01.824Z,15.77
2023-04-18T00:35:28.386Z,15.77
2023-04-18T00:37:54.757Z,15.75
2023-04-18T00:40:21.247Z,15.76
2023-04-18T00:42:47.566Z,15.75
2023-04-18T00:45:13.918Z,15.77
2023-04-18T00:47:40.293Z,15.75
2023-04-18T00:50:06.995Z,15.74
2023-04-18T00:52:33.440Z,15.76
2023-04-18T00:54:59.791Z,15.77
2023-04-18T00:57:26.207Z,15.72
2023-04-18T00:59:52.551Z,15.74
2023-04-18T01:02:19.264Z,15.75
2023-04-18T01:04:46.599Z,15.74
2023-04-18T01:07:13.337Z,15.73
2023-04-18T01:09:40.646Z,15.73
2023-04-18T01:12:07.047Z,15.72
2023-04-18T01:14:33.536Z,15.75
2023-04-18T01:16:59.926Z,15.74
2023-04-18T01:19:26.249Z,15.73
2023-04-18T01:21:52.664Z,15.73
2023-04-18T01:24:19.061Z,15.72
2023-04-18T01:26:45.912Z,15.72
2023-04-18T01:29:13.060Z,15.72
2023-04-18T01:31:39.752Z,15.73
2023-04-18T01:34:07.237Z,15.67
2023-04-18T01:36:33.695Z,15.71
2023-04-18T01:39:00.040Z,15.73
2023-04-18T01:41:26.455Z,15.71
2023-04-18T01:43:53.360Z,15.68
2023-04-18T01:46:20.108Z,15.68
2023-04-18T01:48:46.821Z,15.67
2023-04-18T01:51:13.707Z,15.70
2023-04-18T01:53:40.315Z,15.67
2023-04-18T01:56:06.692Z,15.68
2023-04-18T01:58:33.044Z,15.68
2023-04-18T02:00:59.811Z,15.67
2023-04-18T02:03:26.435Z,15.68
2023-04-18T02:05:52.827Z,15.67
2023-04-18T02:08:19.168Z,15.69
2023-04-18T02:10:45.763Z,15.68
2023-04-18T02:13:12.167Z,15.66
2023-04-18T02:15:38.573Z,15.63
2023-04-18T02:18:04.923Z,15.69
2023-04-18T02:20:31.254Z,15.63
2023-04-18T02:22:57.758Z,15.64
2023-04-18T02:25:24.138Z,15.63
2023-04-18T02:27:50.506Z,15.66
2023-04-18T02:30:16.879Z,15.64
2023-04-18T02:32:43.284Z,15.65
2023-04-18T02:35:09.757Z,15.68
2023-04-18T02:37:36.358Z,15.69
2023-04-18T02:40:03.004Z,15.69
2023-04-18T02:42:29.611Z,15.67
2023-04-18T02:44:56.563Z,15.68
2023-04-18T02:47:23.493Z,15.66
2023-04-18T02:49:49.995Z,15.67
2023-04-18T02:52:16.423Z,15.69
2023-04-18T02:54:43.042Z,15.68
2023-04-18T02:57:09.384Z,15.66
2023-04-18T02:59:35.750Z,15.64
2023-04-18T03:02:02.210Z,15.66
2023-04-18T03:04:28.911Z,15.65
2023-04-18T03:06:55.525Z,15.66
2023-04-18T03:09:21.871Z,15.65
2023-04-18T03:11:48.942Z,15.64
2023-04-18T03:14:15.356Z,15.64
2023-04-18T03:16:42.169Z,15.61
2023-04-18T03:19:08.568Z,15.63
2023-04-18T03:21:34.906Z,15.61
2023-04-18T03:24:01.615Z,15.59
2023-04-18T03:26:28.204Z,15.63
2023-04-18T03:28:54.834Z,15.59
2023-04-18T03:31:21.231Z,15.59
2023-04-18T03:33:48.023Z,15.60
2023-04-18T03:36:14.879Z,15.60
2023-04-18T03:38:41.273Z,15.62
2023-04-18T03:41:07.602Z,15.59
2023-04-18T03:43:33.999Z,15.56
2023-04-18T03:46:00.748Z,15.55
2023-04-18T03:48:27.359Z,15.58
2023-04-18T03:50:53.940Z,15.60
2023-04-18T03:53:20.726Z,15.59
2023-04-18T03:55:47.387Z,15.54
2023-04-18T03:58:13.801Z,15.59
2023-04-18T04:00:40.477Z,15.55
2023-04-18T04:03:07.638Z,15.53
2023-04-18T04:05:34.306Z,15.53
2023-04-18T04:08:01.141Z,15.56
2023-04-18T04:10:27.786Z,15.55
2023-04-18T04:12:54.359Z,15.55
2023-04-18T04:15:21.176Z,15.54
2023-04-18T04:17:47.546Z,15.53
2023-04-18T04:20:14.151Z,15.53
2023-04-18T04:22:40.609Z,15.50
2023-04-18T04:25:07.664Z,15.52
2023-04-18T04:27:34.593Z,15.54
2023-04-18T04:30:00.959Z,15.51
2023-04-18T04:32:28.006Z,15.49
2023-04-18T04:34:54.992Z,15.52
2023-04-18T04:37:21.368Z,15.52
2023-04-18T04:39:48.303Z,15.52
2023-04-18T04:42:14.921Z,15.48
2023-04-18T04:44:41.924Z,15.47
2023-04-18T04:47:08.334Z,15.51
2023-04-18T04:49:35.136Z,15.49
2023-04-18T04:52:02.070Z,15.50
2023-04-18T04:54:29.185Z,15.52
2023-04-18T04:56:55.554Z,15.46
2023-04-18T04:59:22.171Z,15.47
2023-04-18T05:01:49.136Z,15.49
2023-04-18T05:04:15.715Z,15.48
2023-04-18T05:06:42.375Z,15.50
2023-04-18T05:09:09.114Z,15.49
2023-04-18T05:11:35.926Z,15.49
2023-04-18T05:14:02.252Z,15.25
2023-04-18T05:16:28.648Z,15.21
2023-04-18T05:18:55.663Z,15.27
2023-04-18T05:21:22.084Z,15.43
2023-04-18T05:23:48.955Z,15.46
2023-04-18T05:26:15.754Z,15.48
2023-04-18T05:28:42.145Z,15.46
2023-04-18T05:31:08.586Z,15.50
2023-04-18T05:33:35.653Z,15.50
2023-04-18T05:36:02.165Z,15.49
2023-04-18T05:38:28.655Z,15.53
2023-04-18T05:40:55.075Z,15.47
2023-04-18T05:43:22.136Z,15.44
2023-04-18T05:45:48.580Z,15.41
2023-04-18T05:48:14.992Z,15.38
2023-04-18T05:50:41.550Z,15.40
2023-04-18T05:53:08.113Z,15.35
2023-04-18T05:55:34.658Z,15.30
2023-04-18T05:58:01.256Z,15.33
2023-04-18T06:00:27.992Z,15.31
2023-04-18T06:02:55.264Z,15.32
2023-04-18T06:05:22.337Z,15.33
2023-04-18T06:07:49.139Z,15.33
2023-04-18T06:10:15.547Z,15.31
2023-04-18T06:12:42.102Z,15.29
2023-04-18T06:15:08.529Z,15.25
2023-04-18T06:17:34.963Z,15.23
2023-04-18T06:20:01.643Z,15.24
2023-04-18T06:22:28.350Z,15.28
2023-04-18T06:24:54.727Z,15.27
2023-04-18T06:27:30.598Z,15.22
2023-04-18T06:29:57.931Z,15.21
2023-04-18T06:32:24.554Z,15.20
2023-04-18T06:34:51.520Z,15.23
2023-04-18T06:37:17.918Z,15.21
2023-04-18T06:39:44.552Z,15.21
2023-04-18T06:42:11.215Z,15.23
2023-04-18T06:44:37.621Z,15.26
2023-04-18T06:47:04.066Z,15.23
2023-04-18T06:49:30.960Z,15.22
2023-04-18T06:51:57.506Z,15.21
2023-04-18T06:54:23.839Z,15.26
2023-04-18T06:56:50.134Z,15.24
2023-04-18T06:59:16.789Z,15.24
2023-04-18T07:01:43.234Z,15.28
2023-04-18T07:04:09.842Z,15.28
2023-04-18T07:06:36.415Z,15.27
2023-04-18T07:09:03.048Z,15.24
2023-04-18T07:11:29.405Z,15.26
2023-04-18T07:13:56.012Z,15.22
2023-04-18T07:16:22.405Z,15.21
2023-04-18T07:18:48.931Z,15.21
2023-04-18T07:21:15.568Z,15.18
2023-04-18T07:23:42.026Z,15.18
2023-04-18T07:26:08.474Z,15.14
2023-04-18T07:28:35.218Z,15.17
2023-04-18T07:31:01.616Z,15.17
2023-04-18T07:33:27.999Z,15.15
2023-04-18T07:35:54.603Z,15.15
2023-04-18T07:38:21.830Z,15.11
2023-04-18T07:40:48.465Z,15.16
2023-04-18T07:43:14.911Z,14.99
2023-04-18T07:45:41.930Z,14.95
2023-04-18T07:48:08.572Z,15.05
2023-04-18T07:50:35.038Z,14.97
2023-04-18T07:53:01.318Z,14.83
2023-04-18T07:55:27.710Z,14.83
2023-04-18T07:57:54.506Z,14.95
2023-04-18T08:00:21.230Z,14.86
2023-04-18T08:02:48.000Z,14.80
2023-04-18T08:05:14.567Z,14.75
2023-04-18T08:07:41.194Z,14.77
2023-04-18T08:10:07.585Z,14.64
2023-04-18T08:12:33.983Z,14.67
2023-04-18T08:15:00.754Z,14.65
2023-04-18T08:17:27.746Z,14.64
2023-04-18T08:19:54.941Z,14.60
2023-04-18T08:22:21.667Z,14.60
2023-04-18T08:25:03.280Z,14.62
2023-04-18T08:27:30.528Z,14.56
2023-04-18T08:29:56.914Z,14.54
2023-04-18T08:32:23.274Z,14.51
2023-04-18T08:34:49.780Z,14.49
2023-04-18T08:37:16.211Z,14.53
2023-04-18T08:39:42.996Z,14.57
2023-04-18T08:42:09.434Z,14.48
2023-04-18T08:44:35.795Z,14.57
2023-04-18T08:47:02.186Z,14.45
2023-04-18T08:49:28.542Z,14.54
2023-04-18T08:51:55.524Z,14.62
2023-04-18T08:54:21.858Z,14.53
2023-04-18T08:56:48.325Z,14.52
2023-04-18T08:59:14.944Z,14.46
2023-04-18T09:01:41.743Z,14.48
2023-04-18T09:04:08.520Z,14.39
2023-04-18T09:06:34.956Z,14.46
2023-04-18T09:09:01.329Z,14.44
2023-04-18T09:11:27.708Z,14.51
2023-04-18T09:13:54.186Z,14.52
2023-04-18T09:16:20.664Z,14.48
2023-04-18T09:18:47.348Z,14.49
2023-04-18T09:21:13.778Z,14.48
2023-04-18T09:23:40.169Z,14.50
2023-04-18T09:26:07.171Z,14.54
2023-04-18T09:28:33.540Z,14.48
2023-04-18T09:30:59.869Z,14.49
2023-04-18T09:33:26.289Z,14.49
2023-04-18T09:35:53.279Z,14.44
2023-04-18T09:38:20.394Z,14.48
2023-04-18T09:40:47.085Z,14.50
2023-04-18T09:43:13.617Z,14.50
2023-04-18T09:45:39.988Z,14.55
2023-04-18T09:48:06.451Z,14.48
2023-04-18T09:50:33.205Z,14.48
2023-04-18T09:52:59.913Z,14.51
2023-04-18T09:55:26.286Z,14.48
2023-04-18T09:57:52.840Z,14.50
2023-04-18T10:00:20.140Z,14.43
2023-04-18T10:02:47.222Z,14.48
2023-04-18T10:05:14.874Z,14.49
2023-04-18T10:07:41.571Z,14.52
2023-04-18T10:10:08.219Z,14.61
2023-04-18T10:12:34.874Z,14.58
2023-04-18T10:15:01.239Z,14.50
2023-04-18T10:17:29.412Z,14.51
2023-04-18T10:19:56.596Z,14.57
2023-04-18T10:22:23.050Z,14.57
2023-04-18T10:24:49.670Z,14.51
2023-04-18T10:27:16.350Z,14.52
2023-04-18T10:29:42.683Z,14.52
2023-04-18T10:32:09.699Z,14.60
2023-04-18T10:34:36.259Z,14.51
2023-04-18T10:37:02.628Z,14.68
2023-04-18T10:39:29.328Z,14.58
2023-04-18T10:41:56.070Z,14.64
2023-04-18T10:44:22.855Z,14.53
2023-04-18T10:46:49.793Z,14.61
2023-04-18T10:49:16.330Z,14.61
2023-04-18T10:51:42.776Z,14.58
2023-04-18T10:54:09.210Z,14.60
2023-04-18T10:56:35.611Z,14.68
2023-04-18T10:59:02.039Z,14.64
2023-04-18T11:01:32.136Z,14.60
2023-04-18T11:03:59.811Z,14.61
2023-04-18T11:06:26.323Z,14.55
2023-04-18T11:08:53.139Z,14.61
2023-04-18T11:11:20.125Z,14.63
2023-04-18T11:13:47.429Z,14.65
2023-04-18T11:16:13.877Z,14.58
2023-04-18T11:18:40.441Z,14.60
2023-04-18T11:21:07.234Z,14.64
2023-04-18T11:23:33.639Z,14.60
2023-04-18T11:26:00.534Z,14.69
2023-04-18T11:28:27.162Z,14.64
2023-04-18T11:30:53.605Z,14.66
2023-04-18T11:33:20.504Z,14.59
2023-04-18T11:35:46.908Z,14.66
2023-04-18T11:38:14.390Z,14.58
2023-04-18T11:40:41.477Z,14.61
2023-04-18T11:43:07.915Z,14.63
2023-04-18T11:45:34.362Z,14.64
2023-04-18T11:48:00.777Z,14.60
2023-04-18T11:50:27.311Z,14.64
2023-04-18T11:52:53.685Z,14.55
2023-04-18T11:55:21.137Z,14.61
2023-04-18T11:57:47.527Z,14.61
2023-04-18T12:00:14.088Z,14.59
2023-04-18T12:02:40.813Z,14.47
2023-04-18T12:05:07.669Z,14.58
2023-04-18T12:07:34.359Z,14.55
2023-04-18T12:10:00.824Z,14.85
2023-04-18T12:12:27.598Z,14.77
2023-04-18T12:14:54.103Z,14.85
2023-04-18T12:17:20.797Z,14.79
2023-04-18T12:19:49.200Z,14.69
2023-04-18T12:22:16.161Z,14.53
2023-04-18T12:24:42.477Z,14.52
2023-04-18T12:27:09.230Z,14.52
2023-04-18T12:29:35.561Z,14.68
2023-04-18T12:32:02.068Z,14.71
2023-04-18T12:34:28.923Z,14.83
2023-04-18T12:36:55.362Z,14.71
2023-04-18T12:39:21.725Z,14.74
2023-04-18T12:41:49.757Z,14.81
2023-04-18T12:44:16.612Z,14.91
2023-04-18T12:46:43.418Z,14.94
2023-04-18T12:49:09.824Z,14.95
2023-04-18T12:51:36.362Z,14.87
2023-04-18T12:54:02.998Z,14.94
2023-04-18T12:56:29.479Z,14.93
2023-04-18T12:58:55.796Z,14.94
2023-04-18T13:01:22.123Z,14.94
2023-04-18T13:03:56.269Z,15.00
2023-04-18T13:06:30.657Z,15.05
2023-04-18T13:08:57.197Z,15.04
2023-04-18T13:11:23.531Z,15.06
2023-04-18T13:13:50.203Z,15.10
2023-04-18T13:16:16.597Z,15.06
2023-04-18T13:18:43.116Z,15.13
2023-04-18T13:21:09.482Z,15.06
2023-04-18T13:23:35.838Z,14.99
2023-04-18T13:26:02.208Z,15.05
2023-04-18T13:28:29.006Z,15.10
2023-04-18T13:30:55.708Z,15.08
2023-04-18T13:33:22.155Z,15.08
2023-04-18T13:35:48.561Z,15.08
2023-04-18T13:38:14.963Z,15.14
2023-04-18T13:40:41.369Z,15.17
2023-04-18T13:43:07.754Z,15.20
2023-04-18T13:45:34.118Z,15.21
2023-04-18T13:48:00.452Z,15.20
2023-04-18T13:50:27.149Z,15.21
2023-04-18T13:52:53.539Z,15.19
2023-04-18T13:55:20.088Z,15.21
2023-04-18T13:57:46.403Z,15.18
2023-04-18T14:00:12.966Z,15.19
2023-04-18T14:02:39.878Z,15.21
2023-04-18T14:05:06.398Z,15.22
2023-04-18T14:07:32.827Z,15.23
2023-04-18T14:09:59.615Z,15.25
2023-04-18T14:12:26.077Z,15.19
2023-04-18T14:14:52.680Z,15.25
2023-04-18T14:17:19.274Z,15.16
2023-04-18T14:19:45.635Z,15.22
2023-04-18T14:22:12.047Z,15.23
2023-04-18T14:24:38.555Z,15.20
2023-04-18T14:27:04.942Z,15.23
2023-04-18T14:29:31.428Z,15.24
2023-04-18T14:31:57.755Z,15.18
2023-04-18T14:34:24.225Z,15.24
2023-04-18T14:36:50.753Z,15.17
2023-04-18T14:39:17.248Z,15.24
2023-04-18T14:41:43.683Z,15.18
2023-04-18T14:44:10.107Z,15.19
2023-04-18T14:46:36.557Z,15.23
2023-04-18T14:49:02.971Z,15.22
2023-04-18T14:51:29.323Z,15.26
2023-04-18T14:53:55.844Z,15.16
2023-04-18T14:56:22.243Z,15.16
2023-04-18T14:58:48.931Z,15.27
2023-04-18T15:01:15.269Z,15.21
2023-04-18T15:03:41.747Z,15.23
2023-04-18T15:06:08.283Z,15.19
2023-04-18T15:08:34.645Z,15.25
2023-04-18T15:11:01.043Z,15.23
2023-04-18T15:13:27.752Z,15.19
2023-04-18T15:15:54.090Z,15.22
2023-04-18T15:18:20.471Z,15.13
2023-04-18T15:20:47.009Z,15.18
2023-04-18T15:23:13.486Z,15.10
2023-04-18T15:25:40.262Z,15.22
2023-04-18T15:28:06.980Z,15.19
2023-04-18T15:30:33.355Z,15.11
2023-04-18T15:32:59.842Z,15.13
2023-04-18T15:35:26.250Z,15.06
2023-04-18T15:37:53.058Z,15.08
2023-04-18T15:40:19.883Z,15.03
2023-04-18T15:42:46.327Z,15.04
2023-04-18T15:45:12.677Z,15.00
2023-04-18T15:47:39.582Z,14.97
2023-04-18T15:50:06.040Z,14.97
2023-04-18T15:52:32.436Z,15.01
2023-04-18T15:54:58.951Z,15.04
2023-04-18T15:57:25.371Z,15.03
2023-04-18T15:59:51.686Z,15.04
2023-04-18T16:02:18.139Z,14.98
2023-04-18T16:04:45.088Z,15.10
2023-04-18T16:07:11.732Z,15.08
2023-04-18T16:09:38.098Z,15.07
2023-04-18T16:12:04.767Z,15.12
2023-04-18T16:14:31.172Z,15.13
2023-04-18T16:17:00.509Z,15.09
2023-04-18T16:19:27.135Z,15.19
2023-04-18T16:21:53.743Z,15.14
2023-04-18T16:24:20.458Z,15.05
2023-04-18T16:26:47.153Z,15.15
2023-04-18T16:29:13.598Z,15.02
2023-04-18T16:31:40.171Z,15.04
2023-04-18T16:34:06.806Z,15.04
2023-04-18T16:36:33.352Z,15.18
2023-04-18T16:38:59.692Z,15.10
2023-04-18T16:41:26.056Z,15.07
2023-04-18T16:43:52.566Z,15.09
2023-04-18T16:46:19.391Z,15.16
2023-04-18T16:48:46.464Z,14.90
2023-04-18T16:51:13.152Z,14.96
2023-04-18T16:53:39.662Z,14.94
2023-04-18T16:56:06.141Z,14.86
2023-04-18T16:58:32.497Z,14.76
2023-04-18T17:00:59.894Z,14.77
2023-04-18T17:03:27.016Z,14.78
2023-04-18T17:05:53.603Z,14.83
2023-04-18T17:08:20.510Z,14.88
2023-04-18T17:10:47.562Z,14.95
2023-04-18T17:13:14.641Z,15.03
2023-04-18T17:15:41.146Z,15.12
2023-04-18T17:18:07.524Z,15.20
2023-04-18T17:20:34.422Z,15.27
2023-04-18T17:23:00.897Z,15.36
2023-04-18T17:25:27.373Z,15.46
2023-04-18T17:27:53.781Z,15.56
2023-04-18T17:30:20.654Z,15.63
2023-04-18T17:32:47.767Z,15.74
2023-04-18T17:35:14.209Z,15.77
2023-04-18T17:37:40.590Z,15.84
2023-04-18T17:40:06.964Z,15.92
2023-04-18T17:42:33.305Z,15.99
2023-04-18T17:45:00.399Z,16.06
2023-04-18T17:47:26.868Z,16.12
2023-04-18T17:49:53.324Z,16.18
2023-04-18T17:52:19.663Z,16.24
2023-04-18T17:54:46.135Z,16.33
2023-04-18T17:57:12.503Z,16.37
2023-04-18T17:59:39.238Z,16.43
2023-04-18T18:02:05.706Z,16.48
2023-04-18T18:04:32.339Z,16.55
2023-04-18T18:06:58.933Z,16.59
2023-04-18T18:09:25.434Z,16.60
2023-04-18T18:11:54.688Z,16.58
2023-04-18T18:14:22.269Z,16.66
2023-04-18T18:16:49.080Z,16.71
2023-04-18T18:19:15.822Z,16.77
2023-04-18T18:21:42.256Z,16.82
2023-04-18T18:24:09.186Z,16.89
2023-04-18T18:26:35.594Z,16.94
2023-04-18T18:29:02.312Z,17.01
2023-04-18T18:31:28.660Z,17.08
2023-04-18T18:33:55.200Z,17.16
2023-04-18T18:36:21.486Z,17.20
2023-04-18T18:38:48.226Z,17.28
2023-04-18T18:41:14.582Z,17.36
2023-04-18T18:43:40.913Z,17.41
2023-04-18T18:46:07.854Z,17.45
2023-04-18T18:48:34.289Z,17.48
2023-04-18T18:51:00.663Z,17.49
2023-04-18T18:53:27.707Z,17.52
2023-04-18T18:55:54.210Z,17.54
2023-04-18T18:58:20.701Z,17.54
2023-04-18T19:00:47.140Z,17.56
2023-04-18T19:03:14.061Z,17.61
2023-04-18T19:05:40.729Z,17.55
2023-04-18T19:08:07.462Z,17.59
2023-04-18T19:10:33.790Z,17.61
2023-04-18T19:13:00.295Z,17.61
2023-04-18T19:15:26.671Z,17.63
2023-04-18T19:17:52.995Z,17.65
2023-04-18T19:20:19.638Z,17.68
2023-04-18T19:22:45.995Z,17.70
2023-04-18T19:25:12.387Z,17.73
2023-04-18T19:27:38.771Z,17.74
2023-04-18T19:30:05.203Z,17.77
2023-04-18T19:32:31.760Z,17.81
2023-04-18T19:34:58.098Z,17.82
2023-04-18T19:37:25.297Z,17.81
2023-04-18T19:39:51.607Z,17.84
2023-04-18T19:42:18.269Z,17.87
2023-04-18T19:44:45.703Z,17.90
2023-04-18T19:47:12.077Z,17.92
2023-04-18T19:49:38.666Z,17.93
2023-04-18T19:52:05.356Z,17.96
2023-04-18T19:54:32.420Z,17.96
2023-04-18T19:56:58.964Z,17.98
2023-04-18T19:59:25.436Z,17.97
2023-04-18T20:01:51.995Z,17.95
2023-04-18T20:04:19.004Z,17.94
2023-04-18T20:06:45.414Z,17.94
2023-04-18T20:09:12.099Z,17.91
2023-04-18T20:11:39.201Z,17.97
2023-04-18T20:14:05.731Z,18.00
2023-04-18T20:16:32.180Z,18.03
2023-04-18T20:18:58.905Z,18.07
2023-04-18T20:21:25.200Z,18.07
2023-04-18T20:23:52.038Z,18.10
2023-04-18T20:26:18.385Z,18.13
2023-04-18T20:28:44.782Z,18.14
2023-04-18T20:31:11.671Z,18.16
2023-04-18T20:33:38.144Z,18.20
2023-04-18T20:36:04.884Z,18.24
2023-04-18T20:38:31.239Z,18.27
2023-04-18T20:40:57.557Z,18.28
2023-04-18T20:43:24.050Z,18.31
2023-04-18T20:45:50.395Z,18.33
2023-04-18T20:48:16.745Z,18.37
2023-04-18T20:50:43.197Z,18.37
2023-04-18T20:53:09.596Z,18.39
2023-04-18T20:55:35.994Z,18.41
2023-04-18T20:58:02.730Z,18.39
2023-04-18T21:00:29.100Z,18.43
2023-04-18T21:02:55.722Z,18.47
2023-04-18T21:05:22.223Z,18.48
2023-04-18T21:07:48.978Z,18.48
2023-04-18T21:10:15.403Z,18.51
2023-04-18T21:12:41.807Z,18.50
2023-04-18T21:15:08.258Z,18.53
2023-04-18T21:17:35.060Z,18.54
2023-04-18T21:20:01.727Z,18.50
2023-04-18T21:22:28.677Z,18.56
2023-04-18T21:24:55.402Z,18.58
2023-04-18T21:27:21.695Z,18.60
2023-04-18T21:29:48.011Z,18.63
2023-04-18T21:32:14.756Z,18.64
2023-04-18T21:34:41.117Z,18.69
2023-04-18T21:37:07.713Z,18.69
2023-04-18T21:39:34.126Z,18.72
2023-04-18T21:42:01.196Z,18.72
2023-04-18T21:44:27.596Z,18.74
2023-04-18T21:46:53.947Z,18.76
2023-04-18T21:49:20.260Z,18.77
2023-04-18T21:51:46.816Z,18.76
2023-04-18T21:54:13.506Z,18.77
2023-04-18T21:56:41.522Z,18.80
2023-04-18T21:59:08.637Z,18.81
2023-04-18T22:01:35.035Z,18.83
2023-04-18T22:04:01.703Z,18.86
2023-04-18T22:06:28.401Z,18.88
2023-04-18T22:08:54.710Z,18.90
2023-04-18T22:11:21.610Z,18.92
2023-04-18T22:13:48.068Z,18.93
2023-04-18T22:16:14.703Z,18.95
2023-04-18T22:18:41.774Z,18.96
2023-04-18T22:21:08.402Z,18.97
2023-04-18T22:23:34.740Z,18.98
2023-04-18T22:26:01.140Z,18.99
2023-04-18T22:28:27.495Z,19.01
2023-04-18T22:30:53.994Z,19.04
2023-04-18T22:33:20.745Z,19.05
2023-04-18T22:37:35.737Z,19.04
2023-04-18T22:40:02.441Z,18.98
2023-04-18T22:42:30.033Z,18.95
2023-04-18T22:44:56.715Z,18.92
2023-04-18T22:47:23.403Z,18.90
2023-04-18T22:49:49.863Z,18.88
2023-04-18T22:52:16.625Z,18.84
2023-04-18T22:54:43.158Z,18.79
2023-04-18T22:57:10.066Z,18.77
2023-04-18T22:59:36.692Z,18.73
2023-04-18T23:02:03.446Z,18.70
2023-04-18T23:04:30.170Z,18.67
2023-04-18T23:06:57.066Z,18.64
2023-04-18T23:09:24.088Z,18.59
2023-04-18T23:11:50.953Z,18.57
2023-04-18T23:14:17.449Z,18.52
2023-04-18T23:16:43.997Z,18.48
2023-04-18T23:19:10.498Z,18.46
2023-04-18T23:21:37.584Z,18.43
2023-04-18T23:24:04.074Z,18.40
2023-04-18T23:26:31.582Z,18.39
2023-04-18T23:28:58.902Z,18.36
2023-04-18T23:31:25.590Z,18.32
2023-04-18T23:33:52.125Z,18.32
2023-04-18T23:36:18.668Z,18.35
2023-04-18T23:38:45.118Z,18.30
2023-04-18T23:41:11.640Z,18.27
2023-04-18T23:43:38.273Z,18.26
2023-04-18T23:46:05.024Z,18.25
2023-04-18T23:48:31.870Z,18.20
2023-04-18T23:50:58.514Z,18.17
2023-04-18T23:53:25.509Z,18.15
2023-04-18T23:55:52.064Z,18.12
2023-04-18T23:58:18.709Z,18.12
